sensor_id;sensor_type;location;lat;lon;timestamp;noise_LAeq;noise_LA_min;noise_LA_max;noise_LA01;noise_LA95
74244;Laerm;62600;55.732;37.662;2022-09-20T00:00:25;56.80;48.71;64.55;;
74244;Laerm;62600;55.732;37.662;2022-09-20T00:01:55;57.92;48.81;69.06;;
74244;Laerm;62600;55.732;37.662;2022-09-20T00:03:25;54.88;49.55;64.04;;
74244;Laerm;62600;55.732;37.662;2022-09-20T00:04:56;57.51;50.42;63.25;;
74244;Laerm;62600;55.732;37.662;2022-09-20T00:06:29;53.67;47.78;61.66;;
74244;Laerm;62600;55.732;37.662;2022-09-20T00:08:00;54.32;48.57;61.87;;
74244;Laerm;62600;55.732;37.662;2022-09-20T00:09:30;56.42;47.63;62.01;;
74244;Laerm;62600;55.732;37.662;2022-09-20T00:12:32;56.34;48.16;67.13;;
74244;Laerm;62600;55.732;37.662;2022-09-20T00:14:04;54.32;45.50;65.25;;
74244;Laerm;62600;55.732;37.662;2022-09-20T00:15:44;55.96;44.67;69.52;;
74244;Laerm;62600;55.732;37.662;2022-09-20T00:17:15;53.80;46.54;64.30;;
74244;Laerm;62600;55.732;37.662;2022-09-20T00:18:49;51.75;45.56;64.61;;
74244;Laerm;62600;55.732;37.662;2022-09-20T00:20:20;56.74;49.65;67.89;;
74244;Laerm;62600;55.732;37.662;2022-09-20T00:21:50;52.41;45.55;61.70;;
74244;Laerm;62600;55.732;37.662;2022-09-20T00:23:21;54.64;47.22;65.40;;
74244;Laerm;62600;55.732;37.662;2022-09-20T00:24:51;58.73;50.21;68.33;;
74244;Laerm;62600;55.732;37.662;2022-09-20T00:26:23;56.77;50.21;65.68;;
74244;Laerm;62600;55.732;37.662;2022-09-20T00:27:53;53.13;43.83;68.75;;
74244;Laerm;62600;55.732;37.662;2022-09-20T00:29:24;53.36;47.65;60.38;;
74244;Laerm;62600;55.732;37.662;2022-09-20T00:30:55;57.79;46.99;70.75;;
74244;Laerm;62600;55.732;37.662;2022-09-20T00:32:25;55.82;50.28;65.43;;
74244;Laerm;62600;55.732;37.662;2022-09-20T00:33:57;53.56;47.23;60.97;;
74244;Laerm;62600;55.732;37.662;2022-09-20T00:35:46;56.16;49.87;64.58;;
74244;Laerm;62600;55.732;37.662;2022-09-20T00:37:16;56.00;47.55;63.70;;
74244;Laerm;62600;55.732;37.662;2022-09-20T00:38:47;55.61;50.79;60.22;;
74244;Laerm;62600;55.732;37.662;2022-09-20T00:40:19;56.08;49.63;62.85;;
74244;Laerm;62600;55.732;37.662;2022-09-20T00:41:50;52.10;46.19;62.65;;
74244;Laerm;62600;55.732;37.662;2022-09-20T00:43:44;55.69;45.32;64.79;;
74244;Laerm;62600;55.732;37.662;2022-09-20T00:45:26;55.25;46.67;63.23;;
74244;Laerm;62600;55.732;37.662;2022-09-20T00:46:57;52.48;46.35;62.42;;
74244;Laerm;62600;55.732;37.662;2022-09-20T00:48:30;53.40;46.44;62.24;;
74244;Laerm;62600;55.732;37.662;2022-09-20T00:50:53;54.17;46.36;60.82;;
74244;Laerm;62600;55.732;37.662;2022-09-20T00:51:59;52.98;46.17;62.88;;
74244;Laerm;62600;55.732;37.662;2022-09-20T00:53:38;51.66;46.53;59.09;;
74244;Laerm;62600;55.732;37.662;2022-09-20T00:55:09;52.50;45.14;61.93;;
74244;Laerm;62600;55.732;37.662;2022-09-20T00:56:41;53.57;46.67;60.00;;
74244;Laerm;62600;55.732;37.662;2022-09-20T00:58:13;51.81;44.06;65.45;;
74244;Laerm;62600;55.732;37.662;2022-09-20T00:59:46;49.39;44.89;56.84;;
74244;Laerm;62600;55.732;37.662;2022-09-20T01:01:19;56.20;43.44;64.46;;
74244;Laerm;62600;55.732;37.662;2022-09-20T01:02:53;53.26;46.76;62.83;;
74244;Laerm;62600;55.732;37.662;2022-09-20T01:04:27;54.77;43.24;64.57;;
74244;Laerm;62600;55.732;37.662;2022-09-20T01:06:02;55.42;45.97;64.41;;
74244;Laerm;62600;55.732;37.662;2022-09-20T01:07:33;55.54;48.17;66.07;;
74244;Laerm;62600;55.732;37.662;2022-09-20T01:09:04;56.78;49.29;63.08;;
74244;Laerm;62600;55.732;37.662;2022-09-20T01:10:36;56.18;48.84;63.18;;
74244;Laerm;62600;55.732;37.662;2022-09-20T01:12:14;54.70;47.68;63.95;;
74244;Laerm;62600;55.732;37.662;2022-09-20T01:13:45;55.04;46.77;65.28;;
74244;Laerm;62600;55.732;37.662;2022-09-20T01:15:16;53.71;44.92;63.89;;
74244;Laerm;62600;55.732;37.662;2022-09-20T01:16:47;51.05;44.19;60.75;;
74244;Laerm;62600;55.732;37.662;2022-09-20T01:18:18;56.25;42.28;69.98;;
74244;Laerm;62600;55.732;37.662;2022-09-20T01:21:38;50.47;44.13;58.91;;
74244;Laerm;62600;55.732;37.662;2022-09-20T01:28:14;67.30;50.97;78.24;;
74244;Laerm;62600;55.732;37.662;2022-09-20T01:30:04;55.11;47.41;64.36;;
74244;Laerm;62600;55.732;37.662;2022-09-20T01:31:42;54.50;47.46;63.82;;
74244;Laerm;62600;55.732;37.662;2022-09-20T01:33:30;54.13;43.50;64.70;;
74244;Laerm;62600;55.732;37.662;2022-09-20T01:35:04;51.17;43.78;64.03;;
74244;Laerm;62600;55.732;37.662;2022-09-20T01:37:01;57.11;43.76;69.27;;
74244;Laerm;62600;55.732;37.662;2022-09-20T01:38:40;51.23;43.68;60.64;;
74244;Laerm;62600;55.732;37.662;2022-09-20T01:40:27;57.44;45.11;68.73;;
74244;Laerm;62600;55.732;37.662;2022-09-20T01:42:07;56.46;46.47;63.66;;
74244;Laerm;62600;55.732;37.662;2022-09-20T01:43:45;56.59;48.34;65.30;;
74244;Laerm;62600;55.732;37.662;2022-09-20T01:45:27;54.43;46.65;64.60;;
74244;Laerm;62600;55.732;37.662;2022-09-20T01:48:49;56.61;45.28;72.30;;
74244;Laerm;62600;55.732;37.662;2022-09-20T01:50:34;63.98;46.99;76.71;;
74244;Laerm;62600;55.732;37.662;2022-09-20T02:05:32;59.40;50.52;69.50;;
74244;Laerm;62600;55.732;37.662;2022-09-20T02:21:16;56.74;47.65;66.20;;
74244;Laerm;62600;55.732;37.662;2022-09-20T02:27:23;57.71;48.82;70.57;;
74244;Laerm;62600;55.732;37.662;2022-09-20T02:29:10;57.62;52.43;63.85;;
74244;Laerm;62600;55.732;37.662;2022-09-20T02:35:07;55.10;46.93;63.99;;
74244;Laerm;62600;55.732;37.662;2022-09-20T02:37:48;56.77;46.51;67.13;;
74244;Laerm;62600;55.732;37.662;2022-09-20T02:39:36;55.44;46.39;65.88;;
74244;Laerm;62600;55.732;37.662;2022-09-20T02:41:25;57.19;50.06;66.90;;
74244;Laerm;62600;55.732;37.662;2022-09-20T02:43:38;55.88;45.70;62.33;;
74244;Laerm;62600;55.732;37.662;2022-09-20T02:46:50;57.90;47.20;65.10;;
74244;Laerm;62600;55.732;37.662;2022-09-20T02:48:33;57.54;47.91;69.94;;
74244;Laerm;62600;55.732;37.662;2022-09-20T02:52:04;60.25;49.20;67.26;;
74244;Laerm;62600;55.732;37.662;2022-09-20T02:54:05;56.40;47.98;65.10;;
74244;Laerm;62600;55.732;37.662;2022-09-20T02:55:47;59.08;51.28;72.31;;
74244;Laerm;62600;55.732;37.662;2022-09-20T02:57:39;59.63;50.91;67.75;;
74244;Laerm;62600;55.732;37.662;2022-09-20T03:01:24;60.36;50.25;67.79;;
74244;Laerm;62600;55.732;37.662;2022-09-20T03:03:12;65.64;53.78;77.01;;
74244;Laerm;62600;55.732;37.662;2022-09-20T03:14:37;58.27;50.97;70.41;;
74244;Laerm;62600;55.732;37.662;2022-09-20T03:16:43;59.09;50.30;69.58;;
74244;Laerm;62600;55.732;37.662;2022-09-20T03:18:30;57.01;48.62;62.87;;
74244;Laerm;62600;55.732;37.662;2022-09-20T03:20:07;58.38;51.15;73.49;;
74244;Laerm;62600;55.732;37.662;2022-09-20T03:22:04;61.93;51.86;74.95;;
74244;Laerm;62600;55.732;37.662;2022-09-20T03:40:09;68.94;56.60;76.13;;
74244;Laerm;62600;55.732;37.662;2022-09-20T03:58:56;61.56;51.72;74.26;;
74244;Laerm;62600;55.732;37.662;2022-09-20T04:01:13;61.55;52.81;68.26;;
74244;Laerm;62600;55.732;37.662;2022-09-20T04:04:50;61.49;54.36;67.73;;
74244;Laerm;62600;55.732;37.662;2022-09-20T04:08:12;61.46;53.37;78.10;;
74244;Laerm;62600;55.732;37.662;2022-09-20T04:11:47;63.22;56.74;74.22;;
74244;Laerm;62600;55.732;37.662;2022-09-20T04:13:39;62.76;57.05;68.71;;
74244;Laerm;62600;55.732;37.662;2022-09-20T04:15:34;61.42;54.87;70.87;;
74244;Laerm;62600;55.732;37.662;2022-09-20T04:18:57;66.49;59.17;84.03;;
74244;Laerm;62600;55.732;37.662;2022-09-20T04:20:39;63.66;56.78;79.06;;
74244;Laerm;62600;55.732;37.662;2022-09-20T04:22:13;62.66;54.65;69.22;;
74244;Laerm;62600;55.732;37.662;2022-09-20T04:23:54;64.36;56.03;72.56;;
74244;Laerm;62600;55.732;37.662;2022-09-20T04:25:36;65.76;55.92;78.52;;
74244;Laerm;62600;55.732;37.662;2022-09-20T04:27:19;68.23;57.32;79.91;;
74244;Laerm;62600;55.732;37.662;2022-09-20T04:29:02;65.11;58.23;76.29;;
74244;Laerm;62600;55.732;37.662;2022-09-20T04:30:41;62.67;53.82;70.97;;
74244;Laerm;62600;55.732;37.662;2022-09-20T04:32:27;61.32;54.62;66.86;;
74244;Laerm;62600;55.732;37.662;2022-09-20T04:34:00;63.06;56.72;70.14;;
74244;Laerm;62600;55.732;37.662;2022-09-20T04:37:36;62.72;56.56;71.06;;
74244;Laerm;62600;55.732;37.662;2022-09-20T04:49:58;63.84;57.07;70.91;;
74244;Laerm;62600;55.732;37.662;2022-09-20T04:59:09;69.46;59.03;85.99;;
74244;Laerm;62600;55.732;37.662;2022-09-20T05:11:41;66.38;59.42;85.76;;
74244;Laerm;62600;55.732;37.662;2022-09-20T05:27:40;64.73;60.55;71.16;;
74244;Laerm;62600;55.732;37.662;2022-09-20T05:29:20;63.61;57.39;72.13;;
74244;Laerm;62600;55.732;37.662;2022-09-20T05:30:57;63.70;55.32;73.15;;
74244;Laerm;62600;55.732;37.662;2022-09-20T05:36:03;63.96;56.77;75.09;;
74244;Laerm;62600;55.732;37.662;2022-09-20T05:37:49;63.86;56.54;72.95;;
74244;Laerm;62600;55.732;37.662;2022-09-20T05:41:12;64.18;57.97;73.05;;
74244;Laerm;62600;55.732;37.662;2022-09-20T05:42:54;64.03;58.47;69.68;;
74244;Laerm;62600;55.732;37.662;2022-09-20T05:46:47;64.96;55.97;76.46;;
74244;Laerm;62600;55.732;37.662;2022-09-20T05:52:13;64.13;56.74;72.34;;
74244;Laerm;62600;55.732;37.662;2022-09-20T06:04:59;65.51;58.92;73.87;;
74244;Laerm;62600;55.732;37.662;2022-09-20T06:10:19;64.18;55.98;71.05;;
74244;Laerm;62600;55.732;37.662;2022-09-20T06:14:17;63.55;57.89;68.36;;
74244;Laerm;62600;55.732;37.662;2022-09-20T06:16:02;63.84;59.61;69.97;;
74244;Laerm;62600;55.732;37.662;2022-09-20T06:19:39;68.52;58.71;83.08;;
74244;Laerm;62600;55.732;37.662;2022-09-20T06:21:34;65.05;58.36;73.91;;
74244;Laerm;62600;55.732;37.662;2022-09-20T06:23:08;64.29;57.65;76.08;;
74244;Laerm;62600;55.732;37.662;2022-09-20T06:26:22;64.25;58.71;76.14;;
74244;Laerm;62600;55.732;37.662;2022-09-20T06:27:59;64.13;59.15;73.89;;
74244;Laerm;62600;55.732;37.662;2022-09-20T06:29:38;63.97;56.61;69.45;;
74244;Laerm;62600;55.732;37.662;2022-09-20T06:31:09;69.66;57.71;87.64;;
74244;Laerm;62600;55.732;37.662;2022-09-20T06:33:05;63.14;56.47;72.61;;
74244;Laerm;62600;55.732;37.662;2022-09-20T06:34:39;63.87;57.43;77.86;;
74244;Laerm;62600;55.732;37.662;2022-09-20T06:36:20;65.65;57.89;74.62;;
74244;Laerm;62600;55.732;37.662;2022-09-20T06:40:41;64.04;58.15;73.61;;
74244;Laerm;62600;55.732;37.662;2022-09-20T06:42:49;63.66;57.28;77.01;;
74244;Laerm;62600;55.732;37.662;2022-09-20T06:44:19;63.45;58.10;67.67;;
74244;Laerm;62600;55.732;37.662;2022-09-20T06:45:50;63.69;58.58;71.85;;
74244;Laerm;62600;55.732;37.662;2022-09-20T06:47:20;63.60;59.26;73.36;;
74244;Laerm;62600;55.732;37.662;2022-09-20T06:48:52;63.60;58.69;68.77;;
74244;Laerm;62600;55.732;37.662;2022-09-20T06:50:23;64.22;58.96;72.37;;
74244;Laerm;62600;55.732;37.662;2022-09-20T06:51:53;63.67;58.83;67.35;;
74244;Laerm;62600;55.732;37.662;2022-09-20T06:53:30;63.03;56.73;76.44;;
74244;Laerm;62600;55.732;37.662;2022-09-20T06:55:01;63.78;56.77;67.79;;
74244;Laerm;62600;55.732;37.662;2022-09-20T06:56:36;64.16;58.03;72.26;;
74244;Laerm;62600;55.732;37.662;2022-09-20T06:58:07;66.59;56.64;81.36;;
74244;Laerm;62600;55.732;37.662;2022-09-20T06:59:38;64.84;59.48;79.81;;
74244;Laerm;62600;55.732;37.662;2022-09-20T07:01:09;65.59;60.41;77.23;;
74244;Laerm;62600;55.732;37.662;2022-09-20T07:02:40;63.20;57.44;72.43;;
74244;Laerm;62600;55.732;37.662;2022-09-20T07:04:10;62.47;56.33;70.89;;
74244;Laerm;62600;55.732;37.662;2022-09-20T07:05:40;63.70;58.43;69.06;;
74244;Laerm;62600;55.732;37.662;2022-09-20T07:07:14;63.77;57.37;76.31;;
74244;Laerm;62600;55.732;37.662;2022-09-20T07:08:45;62.48;57.56;67.08;;
74244;Laerm;62600;55.732;37.662;2022-09-20T07:10:16;62.67;57.45;67.71;;
74244;Laerm;62600;55.732;37.662;2022-09-20T07:11:46;62.59;55.01;68.81;;
74244;Laerm;62600;55.732;37.662;2022-09-20T07:13:17;62.91;56.76;73.69;;
74244;Laerm;62600;55.732;37.662;2022-09-20T07:14:49;63.91;57.75;72.40;;
74244;Laerm;62600;55.732;37.662;2022-09-20T07:16:21;62.60;57.77;66.71;;
74244;Laerm;62600;55.732;37.662;2022-09-20T07:17:51;64.65;59.04;78.76;;
74244;Laerm;62600;55.732;37.662;2022-09-20T07:19:22;62.62;56.08;69.06;;
74244;Laerm;62600;55.732;37.662;2022-09-20T07:20:52;66.17;55.78;78.58;;
74244;Laerm;62600;55.732;37.662;2022-09-20T07:22:23;65.23;57.32;81.16;;
74244;Laerm;62600;55.732;37.662;2022-09-20T07:23:53;62.97;57.74;68.81;;
74244;Laerm;62600;55.732;37.662;2022-09-20T07:25:24;63.39;57.16;69.41;;
74244;Laerm;62600;55.732;37.662;2022-09-20T07:27:00;64.69;59.21;80.20;;
74244;Laerm;62600;55.732;37.662;2022-09-20T07:28:33;63.09;57.01;72.55;;
74244;Laerm;62600;55.732;37.662;2022-09-20T07:30:04;63.86;57.02;78.19;;
74244;Laerm;62600;55.732;37.662;2022-09-20T07:31:35;64.10;58.22;72.73;;
74244;Laerm;62600;55.732;37.662;2022-09-20T07:33:06;63.69;59.11;71.77;;
74244;Laerm;62600;55.732;37.662;2022-09-20T07:34:39;66.63;57.83;83.33;;
74244;Laerm;62600;55.732;37.662;2022-09-20T07:36:10;65.11;59.22;70.88;;
74244;Laerm;62600;55.732;37.662;2022-09-20T07:37:43;65.17;58.71;77.28;;
74244;Laerm;62600;55.732;37.662;2022-09-20T07:39:15;62.97;56.36;74.23;;
74244;Laerm;62600;55.732;37.662;2022-09-20T07:40:45;63.75;58.20;69.15;;
74244;Laerm;62600;55.732;37.662;2022-09-20T07:42:23;63.80;58.00;76.91;;
74244;Laerm;62600;55.732;37.662;2022-09-20T07:43:53;63.74;56.66;70.65;;
74244;Laerm;62600;55.732;37.662;2022-09-20T07:45:24;63.38;57.79;75.94;;
74244;Laerm;62600;55.732;37.662;2022-09-20T07:46:56;62.16;54.70;67.81;;
74244;Laerm;62600;55.732;37.662;2022-09-20T07:48:32;63.42;57.74;68.29;;
74244;Laerm;62600;55.732;37.662;2022-09-20T07:50:03;63.10;59.58;67.84;;
74244;Laerm;62600;55.732;37.662;2022-09-20T07:51:34;64.19;57.84;72.24;;
74244;Laerm;62600;55.732;37.662;2022-09-20T07:53:04;63.75;58.21;75.75;;
74244;Laerm;62600;55.732;37.662;2022-09-20T07:54:35;63.33;57.26;78.73;;
74244;Laerm;62600;55.732;37.662;2022-09-20T07:56:11;63.60;56.87;76.86;;
74244;Laerm;62600;55.732;37.662;2022-09-20T07:57:42;64.04;58.54;72.96;;
74244;Laerm;62600;55.732;37.662;2022-09-20T07:59:12;63.23;57.73;73.18;;
74244;Laerm;62600;55.732;37.662;2022-09-20T08:00:43;63.97;57.52;76.08;;
74244;Laerm;62600;55.732;37.662;2022-09-20T08:02:14;64.30;57.72;75.76;;
74244;Laerm;62600;55.732;37.662;2022-09-20T08:03:45;62.78;56.48;69.91;;
74244;Laerm;62600;55.732;37.662;2022-09-20T08:05:15;63.74;57.16;80.61;;
74244;Laerm;62600;55.732;37.662;2022-09-20T08:06:45;61.81;57.24;67.63;;
74244;Laerm;62600;55.732;37.662;2022-09-20T08:08:16;63.20;57.31;70.87;;
74244;Laerm;62600;55.732;37.662;2022-09-20T08:09:47;62.99;58.29;68.65;;
74244;Laerm;62600;55.732;37.662;2022-09-20T08:11:20;61.80;55.60;67.75;;
74244;Laerm;62600;55.732;37.662;2022-09-20T08:12:54;62.81;57.16;68.24;;
74244;Laerm;62600;55.732;37.662;2022-09-20T08:14:24;63.71;55.74;69.33;;
74244;Laerm;62600;55.732;37.662;2022-09-20T08:16:03;63.84;58.11;75.66;;
74244;Laerm;62600;55.732;37.662;2022-09-20T08:17:34;64.89;56.41;78.87;;
74244;Laerm;62600;55.732;37.662;2022-09-20T08:19:04;64.64;56.37;76.57;;
74244;Laerm;62600;55.732;37.662;2022-09-20T08:20:36;63.52;58.53;68.66;;
74244;Laerm;62600;55.732;37.662;2022-09-20T08:22:07;63.31;57.06;68.31;;
74244;Laerm;62600;55.732;37.662;2022-09-20T08:23:40;65.74;59.23;78.55;;
74244;Laerm;62600;55.732;37.662;2022-09-20T08:25:11;62.93;56.79;70.02;;
74244;Laerm;62600;55.732;37.662;2022-09-20T08:26:42;63.00;56.40;73.43;;
74244;Laerm;62600;55.732;37.662;2022-09-20T08:28:13;62.74;56.69;68.17;;
74244;Laerm;62600;55.732;37.662;2022-09-20T08:29:43;64.09;57.78;74.18;;
74244;Laerm;62600;55.732;37.662;2022-09-20T08:31:16;64.22;58.38;73.19;;
74244;Laerm;62600;55.732;37.662;2022-09-20T08:32:48;61.87;55.63;72.28;;
74244;Laerm;62600;55.732;37.662;2022-09-20T08:34:19;63.94;59.13;72.40;;
74244;Laerm;62600;55.732;37.662;2022-09-20T08:35:49;63.54;58.12;68.63;;
74244;Laerm;62600;55.732;37.662;2022-09-20T08:37:20;63.25;58.79;68.89;;
74244;Laerm;62600;55.732;37.662;2022-09-20T08:38:51;63.42;57.40;73.69;;
74244;Laerm;62600;55.732;37.662;2022-09-20T08:40:23;64.21;58.94;74.98;;
74244;Laerm;62600;55.732;37.662;2022-09-20T08:43:34;62.65;56.39;68.85;;
74244;Laerm;62600;55.732;37.662;2022-09-20T08:45:16;63.52;57.18;74.03;;
74244;Laerm;62600;55.732;37.662;2022-09-20T08:46:57;63.48;56.94;78.63;;
74244;Laerm;62600;55.732;37.662;2022-09-20T08:48:31;63.36;55.56;72.39;;
74244;Laerm;62600;55.732;37.662;2022-09-20T08:50:05;64.13;57.38;78.05;;
74244;Laerm;62600;55.732;37.662;2022-09-20T08:51:38;62.96;57.54;69.36;;
74244;Laerm;62600;55.732;37.662;2022-09-20T08:53:13;64.78;60.74;78.16;;
74244;Laerm;62600;55.732;37.662;2022-09-20T08:54:44;68.29;57.22;77.64;;
74244;Laerm;62600;55.732;37.662;2022-09-20T08:56:16;65.41;59.50;72.42;;
74244;Laerm;62600;55.732;37.662;2022-09-20T08:57:52;68.73;63.11;81.68;;
74244;Laerm;62600;55.732;37.662;2022-09-20T08:59:23;68.50;59.25;76.00;;
74244;Laerm;62600;55.732;37.662;2022-09-20T09:00:55;64.57;58.39;71.62;;
74244;Laerm;62600;55.732;37.662;2022-09-20T09:02:30;66.09;55.93;78.24;;
74244;Laerm;62600;55.732;37.662;2022-09-20T09:04:13;68.14;59.44;78.55;;
74244;Laerm;62600;55.732;37.662;2022-09-20T09:05:47;65.03;60.13;74.42;;
74244;Laerm;62600;55.732;37.662;2022-09-20T09:07:19;64.96;60.55;72.74;;
74244;Laerm;62600;55.732;37.662;2022-09-20T09:08:51;62.98;57.44;73.69;;
74244;Laerm;62600;55.732;37.662;2022-09-20T09:10:22;65.16;57.54;80.40;;
74244;Laerm;62600;55.732;37.662;2022-09-20T09:11:55;64.04;55.89;84.61;;
74244;Laerm;62600;55.732;37.662;2022-09-20T09:13:33;64.51;57.78;73.05;;
74244;Laerm;62600;55.732;37.662;2022-09-20T09:15:27;63.96;58.37;73.52;;
74244;Laerm;62600;55.732;37.662;2022-09-20T09:16:59;64.06;57.02;73.66;;
74244;Laerm;62600;55.732;37.662;2022-09-20T09:18:36;63.73;57.25;72.17;;
74244;Laerm;62600;55.732;37.662;2022-09-20T09:20:20;65.67;59.48;76.42;;
74244;Laerm;62600;55.732;37.662;2022-09-20T09:21:59;63.87;58.83;69.48;;
74244;Laerm;62600;55.732;37.662;2022-09-20T09:23:38;62.75;55.54;70.99;;
74244;Laerm;62600;55.732;37.662;2022-09-20T09:26:43;62.80;55.51;68.33;;
74244;Laerm;62600;55.732;37.662;2022-09-20T09:28:14;62.97;55.14;78.75;;
74244;Laerm;62600;55.732;37.662;2022-09-20T09:29:52;64.76;59.00;82.69;;
74244;Laerm;62600;55.732;37.662;2022-09-20T09:31:24;63.77;59.42;69.39;;
74244;Laerm;62600;55.732;37.662;2022-09-20T09:34:56;63.34;54.23;68.86;;
74244;Laerm;62600;55.732;37.662;2022-09-20T09:36:47;63.12;55.65;72.85;;
74244;Laerm;62600;55.732;37.662;2022-09-20T09:38:20;63.33;58.35;68.38;;
74244;Laerm;62600;55.732;37.662;2022-09-20T09:40:13;62.72;57.10;72.00;;
74244;Laerm;62600;55.732;37.662;2022-09-20T09:41:45;64.69;55.44;77.73;;
74244;Laerm;62600;55.732;37.662;2022-09-20T09:43:21;64.68;58.69;69.76;;
74244;Laerm;62600;55.732;37.662;2022-09-20T09:45:09;61.38;53.20;67.18;;
74244;Laerm;62600;55.732;37.662;2022-09-20T09:46:40;65.17;57.53;78.69;;
74244;Laerm;62600;55.732;37.662;2022-09-20T09:48:22;63.74;58.18;69.52;;
74244;Laerm;62600;55.732;37.662;2022-09-20T09:49:57;63.91;56.17;77.60;;
74244;Laerm;62600;55.732;37.662;2022-09-20T09:51:28;61.15;54.72;67.00;;
74244;Laerm;62600;55.732;37.662;2022-09-20T09:53:09;62.55;57.34;68.72;;
74244;Laerm;62600;55.732;37.662;2022-09-20T09:54:48;63.98;58.47;69.30;;
74244;Laerm;62600;55.732;37.662;2022-09-20T10:00:35;63.15;57.17;68.50;;
74244;Laerm;62600;55.732;37.662;2022-09-20T10:04:01;68.77;57.53;75.13;;
74244;Laerm;62600;55.732;37.662;2022-09-20T10:07:25;63.18;55.20;80.79;;
74244;Laerm;62600;55.732;37.662;2022-09-20T10:10:59;62.87;57.46;72.05;;
74244;Laerm;62600;55.732;37.662;2022-09-20T10:12:48;67.38;58.63;84.04;;
74244;Laerm;62600;55.732;37.662;2022-09-20T10:14:28;65.95;56.44;81.77;;
74244;Laerm;62600;55.732;37.662;2022-09-20T10:17:46;61.89;53.31;67.48;;
74244;Laerm;62600;55.732;37.662;2022-09-20T10:21:44;63.23;59.27;70.54;;
74244;Laerm;62600;55.732;37.662;2022-09-20T10:35:10;64.35;57.91;72.15;;
74244;Laerm;62600;55.732;37.662;2022-09-20T10:36:53;65.01;56.08;80.84;;
74244;Laerm;62600;55.732;37.662;2022-09-20T10:38:55;62.75;57.97;73.55;;
74244;Laerm;62600;55.732;37.662;2022-09-20T10:43:07;62.19;52.46;68.46;;
74244;Laerm;62600;55.732;37.662;2022-09-20T10:45:17;62.66;57.30;68.39;;
74244;Laerm;62600;55.732;37.662;2022-09-20T10:46:59;63.42;54.93;73.08;;
74244;Laerm;62600;55.732;37.662;2022-09-20T10:48:46;63.53;55.93;79.27;;
74244;Laerm;62600;55.732;37.662;2022-09-20T10:56:17;63.95;57.91;69.84;;
74244;Laerm;62600;55.732;37.662;2022-09-20T10:58:02;64.78;59.20;78.28;;
74244;Laerm;62600;55.732;37.662;2022-09-20T10:59:58;61.95;51.74;73.99;;
74244;Laerm;62600;55.732;37.662;2022-09-20T11:01:57;67.66;57.13;73.21;;
74244;Laerm;62600;55.732;37.662;2022-09-20T11:05:40;64.82;58.71;72.23;;
74244;Laerm;62600;55.732;37.662;2022-09-20T11:09:30;65.50;54.52;74.16;;
74244;Laerm;62600;55.732;37.662;2022-09-20T11:11:22;68.23;59.44;75.02;;
74244;Laerm;62600;55.732;37.662;2022-09-20T11:13:02;65.81;58.09;78.72;;
74244;Laerm;62600;55.732;37.662;2022-09-20T11:14:40;66.15;59.58;78.30;;
74244;Laerm;62600;55.732;37.662;2022-09-20T11:16:19;64.16;55.08;79.75;;
74244;Laerm;62600;55.732;37.662;2022-09-20T11:19:50;64.64;60.88;70.00;;
74244;Laerm;62600;55.732;37.662;2022-09-20T11:21:25;64.01;55.54;76.62;;
74244;Laerm;62600;55.732;37.662;2022-09-20T11:23:09;63.40;57.04;71.23;;
74244;Laerm;62600;55.732;37.662;2022-09-20T11:25:11;63.41;56.49;73.34;;
74244;Laerm;62600;55.732;37.662;2022-09-20T11:26:47;70.82;57.77;91.94;;
74244;Laerm;62600;55.732;37.662;2022-09-20T11:30:16;64.25;55.90;77.40;;
74244;Laerm;62600;55.732;37.662;2022-09-20T11:31:49;63.10;56.24;73.12;;
74244;Laerm;62600;55.732;37.662;2022-09-20T11:33:36;63.72;57.68;68.30;;
74244;Laerm;62600;55.732;37.662;2022-09-20T11:38:24;64.36;58.56;69.77;;
74244;Laerm;62600;55.732;37.662;2022-09-20T11:40:00;62.45;56.63;70.87;;
74244;Laerm;62600;55.732;37.662;2022-09-20T11:41:31;64.53;57.05;77.23;;
74244;Laerm;62600;55.732;37.662;2022-09-20T11:43:04;64.06;59.37;78.07;;
74244;Laerm;62600;55.732;37.662;2022-09-20T11:44:38;63.10;56.57;70.60;;
74244;Laerm;62600;55.732;37.662;2022-09-20T11:46:23;63.35;58.04;67.44;;
74244;Laerm;62600;55.732;37.662;2022-09-20T11:48:03;64.32;58.48;76.64;;
74244;Laerm;62600;55.732;37.662;2022-09-20T11:56:51;63.85;54.75;79.47;;
74244;Laerm;62600;55.732;37.662;2022-09-20T11:58:23;68.04;53.32;86.55;;
74244;Laerm;62600;55.732;37.662;2022-09-20T11:59:56;63.04;56.38;69.28;;
74244;Laerm;62600;55.732;37.662;2022-09-20T12:01:37;63.16;56.95;73.90;;
74244;Laerm;62600;55.732;37.662;2022-09-20T12:04:53;64.80;56.44;72.34;;
74244;Laerm;62600;55.732;37.662;2022-09-20T12:07:57;63.22;54.21;69.99;;
74244;Laerm;62600;55.732;37.662;2022-09-20T12:09:32;62.71;58.28;68.68;;
74244;Laerm;62600;55.732;37.662;2022-09-20T12:11:13;64.47;57.69;74.39;;
74244;Laerm;62600;55.732;37.662;2022-09-20T12:12:46;62.26;57.54;68.12;;
74244;Laerm;62600;55.732;37.662;2022-09-20T12:14:22;63.42;55.48;73.25;;
74244;Laerm;62600;55.732;37.662;2022-09-20T12:16:15;63.02;55.41;71.24;;
74244;Laerm;62600;55.732;37.662;2022-09-20T12:21:10;63.27;57.60;67.80;;
74244;Laerm;62600;55.732;37.662;2022-09-20T12:22:41;63.44;58.63;71.37;;
74244;Laerm;62600;55.732;37.662;2022-09-20T12:24:18;62.57;56.70;72.35;;
74244;Laerm;62600;55.732;37.662;2022-09-20T12:25:59;62.41;58.28;75.78;;
74244;Laerm;62600;55.732;37.662;2022-09-20T12:32:58;62.80;57.71;74.22;;
74244;Laerm;62600;55.732;37.662;2022-09-20T12:34:35;63.24;58.24;67.85;;
74244;Laerm;62600;55.732;37.662;2022-09-20T12:36:15;63.62;58.22;75.63;;
74244;Laerm;62600;55.732;37.662;2022-09-20T12:37:45;63.73;58.14;71.67;;
74244;Laerm;62600;55.732;37.662;2022-09-20T12:39:19;64.37;59.98;75.73;;
74244;Laerm;62600;55.732;37.662;2022-09-20T12:41:13;65.42;57.64;83.41;;
74244;Laerm;62600;55.732;37.662;2022-09-20T12:42:54;63.39;56.86;75.28;;
74244;Laerm;62600;55.732;37.662;2022-09-20T12:46:18;63.66;59.13;69.93;;
74244;Laerm;62600;55.732;37.662;2022-09-20T12:47:52;71.15;58.83;86.16;;
74244;Laerm;62600;55.732;37.662;2022-09-20T12:50:09;62.22;54.61;67.77;;
74244;Laerm;62600;55.732;37.662;2022-09-20T12:51:36;64.80;55.91;76.56;;
74244;Laerm;62600;55.732;37.662;2022-09-20T12:53:25;62.70;58.08;67.12;;
74244;Laerm;62600;55.732;37.662;2022-09-20T12:54:55;62.94;56.70;69.02;;
74244;Laerm;62600;55.732;37.662;2022-09-20T12:56:26;62.78;55.53;69.34;;
74244;Laerm;62600;55.732;37.662;2022-09-20T12:59:37;66.01;57.93;76.61;;
74244;Laerm;62600;55.732;37.662;2022-09-20T13:04:48;63.35;57.16;71.00;;
74244;Laerm;62600;55.732;37.662;2022-09-20T13:06:22;61.95;56.17;69.25;;
74244;Laerm;62600;55.732;37.662;2022-09-20T13:07:57;64.72;58.59;82.85;;
74244;Laerm;62600;55.732;37.662;2022-09-20T13:09:32;63.95;58.21;75.76;;
74244;Laerm;62600;55.732;37.662;2022-09-20T13:12:51;62.90;56.02;69.26;;
74244;Laerm;62600;55.732;37.662;2022-09-20T13:14:25;61.98;56.20;69.99;;
74244;Laerm;62600;55.732;37.662;2022-09-20T13:15:57;63.42;59.30;72.65;;
74244;Laerm;62600;55.732;37.662;2022-09-20T13:17:30;61.48;55.39;67.64;;